createdAt,value
2019-02-20T00:00:18.047Z,99.99
2019-02-20T00:01:17.748Z,99.99
2019-02-20T00:02:18.006Z,99.99
2019-02-20T00:03:17.978Z,99.99
2019-02-20T00:04:18.007Z,99.99
2019-02-20T00:05:17.979Z,99.99
2019-02-20T00:06:17.966Z,99.99
2019-02-20T00:07:17.958Z,99.99
2019-02-20T00:08:17.937Z,99.99
2019-02-20T00:09:17.934Z,99.99
2019-02-20T00:10:17.946Z,99.99
2019-02-20T00:11:17.930Z,99.99
2019-02-20T00:12:17.901Z,99.99
2019-02-20T00:13:17.654Z,99.99
2019-02-20T00:14:17.902Z,99.99
2019-02-20T00:15:17.882Z,99.99
2019-02-20T00:16:17.870Z,99.99
2019-02-20T00:17:17.618Z,99.99
2019-02-20T00:18:17.865Z,99.99
2019-02-20T00:19:17.870Z,99.99
2019-02-20T00:20:17.869Z,99.99
2019-02-20T00:21:17.827Z,99.99
2019-02-20T00:22:17.819Z,99.99
2019-02-20T00:23:17.818Z,99.99
2019-02-20T00:24:17.805Z,99.99
2019-02-20T00:25:17.820Z,99.99
2019-02-20T00:26:17.786Z,99.99
2019-02-20T00:27:17.798Z,99.99
2019-02-20T00:28:17.767Z,99.99
2019-02-20T00:29:17.762Z,99.99
2019-02-20T00:30:17.861Z,99.99
2019-02-20T00:31:17.748Z,99.99
2019-02-20T00:32:17.757Z,99.99
2019-02-20T00:33:17.470Z,99.99
2019-02-20T00:34:17.715Z,99.99
2019-02-20T00:35:17.717Z,99.99
2019-02-20T00:36:17.705Z,99.99
2019-02-20T00:37:17.689Z,99.99
2019-02-20T00:38:17.705Z,99.99
2019-02-20T00:39:17.677Z,99.99
2019-02-20T00:40:17.420Z,99.99
2019-02-20T00:41:17.664Z,99.99
2019-02-20T00:42:17.651Z,99.99
2019-02-20T00:43:17.391Z,99.99
2019-02-20T00:44:17.635Z,99.99
2019-02-20T00:45:17.643Z,99.99
2019-02-20T00:46:17.612Z,99.99
2019-02-20T00:47:17.612Z,99.99
2019-02-20T00:48:17.624Z,99.99
2019-02-20T00:49:17.338Z,99.99
2019-02-20T00:50:17.652Z,99.99
2019-02-20T00:51:17.566Z,99.99
2019-02-20T00:52:17.572Z,99.99
2019-02-20T00:53:17.565Z,99.99
2019-02-20T00:54:17.557Z,99.99
2019-02-20T00:55:17.570Z,99.99
2019-02-20T00:56:17.513Z,99.99
2019-02-20T00:57:17.263Z,99.99
2019-02-20T00:58:17.264Z,99.99
2019-02-20T00:59:19.385Z,99.99
2019-02-20T01:00:17.306Z,99.99
2019-02-20T01:01:17.499Z,99.99
2019-02-20T01:02:17.215Z,99.99
2019-02-20T01:03:17.466Z,99.99
2019-02-20T01:04:17.449Z,99.99
2019-02-20T01:05:17.522Z,99.99
2019-02-20T01:06:17.427Z,99.99
2019-02-20T01:07:17.425Z,99.99
2019-02-20T01:08:17.423Z,99.99
2019-02-20T01:09:17.399Z,99.99
2019-02-20T01:10:17.485Z,99.99
2019-02-20T01:11:17.163Z,99.99
2019-02-20T01:12:17.377Z,99.99
2019-02-20T01:13:17.109Z,99.99
2019-02-20T01:14:17.346Z,99.99
2019-02-20T01:15:17.441Z,99.99
2019-02-20T01:16:17.333Z,99.99
2019-02-20T01:17:17.323Z,99.99
2019-02-20T01:18:17.340Z,99.99
2019-02-20T01:19:17.449Z,99.99
2019-02-20T01:20:17.386Z,99.99
2019-02-20T01:21:17.284Z,99.99
2019-02-20T01:22:17.284Z,99.99
2019-02-20T01:23:17.267Z,99.99
2019-02-20T01:24:17.268Z,99.99
2019-02-20T01:25:17.096Z,99.99
2019-02-20T01:26:17.248Z,99.99
2019-02-20T01:27:17.252Z,99.99
2019-02-20T01:28:17.218Z,99.99
2019-02-20T01:29:17.204Z,99.99
2019-02-20T01:30:16.960Z,99.99
2019-02-20T01:31:17.195Z,99.99
2019-02-20T01:32:17.187Z,99.99
2019-02-20T01:33:18.742Z,99.99
2019-02-20T01:34:17.156Z,99.99
2019-02-20T01:35:17.217Z,99.99
2019-02-20T01:36:17.147Z,99.99
2019-02-20T01:37:17.124Z,99.99
2019-02-20T01:38:16.885Z,99.99
2019-02-20T01:39:17.105Z,99.99
2019-02-20T01:40:16.897Z,99.99
2019-02-20T01:41:16.851Z,99.99
2019-02-20T01:42:17.078Z,99.99
2019-02-20T01:43:17.081Z,99.99
2019-02-20T01:44:17.070Z,99.99
2019-02-20T01:45:16.871Z,99.99
2019-02-20T01:46:17.041Z,99.99
2019-02-20T01:47:16.780Z,99.99
2019-02-20T01:48:17.020Z,99.99
2019-02-20T01:49:17.027Z,99.99
2019-02-20T01:50:17.133Z,99.99
2019-02-20T01:51:17.022Z,99.99
2019-02-20T01:52:16.739Z,99.99
2019-02-20T01:53:16.982Z,99.99
2019-02-20T01:54:16.975Z,99.99
2019-02-20T01:55:16.992Z,99.99
2019-02-20T01:56:16.695Z,99.99
2019-02-20T01:57:16.937Z,99.99
2019-02-20T01:58:16.960Z,99.99
2019-02-20T01:59:16.669Z,99.99
2019-02-20T02:00:16.682Z,99.99
2019-02-20T02:01:16.895Z,99.99
2019-02-20T02:02:16.651Z,99.99
2019-02-20T02:03:16.879Z,99.99
2019-02-20T02:04:16.615Z,99.99
2019-02-20T02:05:17.894Z,99.99
2019-02-20T02:06:16.836Z,99.99
2019-02-20T02:07:16.589Z,99.99
2019-02-20T02:08:16.569Z,99.99
2019-02-20T02:09:16.558Z,99.99
2019-02-20T02:10:16.869Z,99.99
2019-02-20T02:11:16.538Z,99.99
2019-02-20T02:12:16.778Z,99.99
2019-02-20T02:13:16.532Z,99.99
2019-02-20T02:14:16.765Z,99.99
2019-02-20T02:15:23.070Z,99.99
2019-02-20T02:16:16.742Z,99.99
2019-02-20T02:17:16.481Z,99.99
2019-02-20T02:18:16.474Z,99.99
2019-02-20T02:19:16.712Z,99.99
2019-02-20T02:20:16.704Z,99.99
2019-02-20T02:21:16.743Z,99.99
2019-02-20T02:22:16.516Z,99.99
2019-02-20T02:23:22.157Z,99.99
2019-02-20T02:24:16.658Z,99.99
2019-02-20T02:25:16.652Z,99.99
2019-02-20T02:26:16.640Z,99.99
2019-02-20T02:27:16.641Z,99.99
2019-02-20T02:28:16.621Z,99.99
2019-02-20T02:29:16.356Z,99.99
2019-02-20T02:30:16.433Z,99.99
2019-02-20T02:31:16.339Z,99.99
2019-02-20T02:32:16.344Z,99.99
2019-02-20T02:33:16.566Z,99.99
2019-02-20T02:34:16.324Z,99.99
2019-02-20T02:35:16.582Z,99.99
2019-02-20T02:36:16.543Z,99.99
2019-02-20T02:37:16.273Z,99.99
2019-02-20T02:38:16.509Z,99.99
2019-02-20T02:39:16.502Z,99.99
2019-02-20T02:40:16.305Z,99.99
2019-02-20T02:41:16.235Z,99.99
2019-02-20T02:42:16.234Z,99.99
2019-02-20T02:43:16.467Z,99.99
2019-02-20T02:44:16.445Z,99.99
2019-02-20T02:45:16.303Z,99.99
2019-02-20T02:46:16.180Z,99.99
2019-02-20T02:47:16.240Z,99.99
2019-02-20T02:48:16.247Z,99.99
2019-02-20T02:49:16.437Z,99.99
2019-02-20T02:50:16.225Z,99.99
2019-02-20T02:51:16.470Z,99.99
2019-02-20T02:52:16.363Z,99.99
2019-02-20T02:53:16.364Z,99.99
2019-02-20T02:54:16.399Z,99.99
2019-02-20T02:55:16.368Z,99.99
2019-02-20T02:56:16.334Z,99.99
2019-02-20T02:57:16.314Z,99.99
2019-02-20T02:58:16.302Z,99.99
2019-02-20T02:59:16.315Z,99.99
2019-02-20T03:00:16.415Z,99.99
2019-02-20T03:01:16.283Z,99.99
2019-02-20T03:02:16.272Z,99.99
2019-02-20T03:03:16.271Z,99.99
2019-02-20T03:04:16.240Z,99.99
2019-02-20T03:05:16.230Z,99.99
2019-02-20T03:06:16.240Z,99.99
2019-02-20T03:07:16.212Z,99.99
2019-02-20T03:08:16.227Z,99.99
2019-02-20T03:09:15.941Z,99.99
2019-02-20T03:10:16.213Z,99.99
2019-02-20T03:11:15.917Z,99.99
2019-02-20T03:12:16.155Z,99.99
2019-02-20T03:13:15.910Z,99.99
2019-02-20T03:14:15.886Z,99.99
2019-02-20T03:15:16.146Z,99.99
2019-02-20T03:16:15.859Z,99.99
2019-02-20T03:17:15.860Z,99.99
2019-02-20T03:18:16.094Z,99.99
2019-02-20T03:19:15.840Z,99.99
2019-02-20T03:20:16.429Z,99.99
2019-02-20T03:21:16.083Z,99.99
2019-02-20T03:22:15.802Z,99.99
2019-02-20T03:23:16.042Z,99.99
2019-02-20T03:24:15.789Z,99.99
2019-02-20T03:25:16.049Z,99.99
2019-02-20T03:26:15.773Z,99.99
2019-02-20T03:27:15.750Z,99.99
2019-02-20T03:28:15.735Z,99.99
2019-02-20T03:29:15.982Z,99.99
2019-02-20T03:30:15.978Z,99.99
2019-02-20T03:31:15.975Z,99.99
2019-02-20T03:32:15.973Z,99.99
2019-02-20T03:33:15.953Z,99.99
2019-02-20T03:34:15.698Z,99.99
2019-02-20T03:35:15.693Z,99.99
2019-02-20T03:36:15.650Z,99.99
2019-02-20T03:37:15.888Z,99.99
2019-02-20T03:38:15.649Z,99.99
2019-02-20T03:39:15.637Z,99.99
2019-02-20T03:40:15.932Z,99.99
2019-02-20T03:41:15.845Z,99.99
2019-02-20T03:42:15.845Z,99.99
2019-02-20T03:43:15.574Z,99.99
2019-02-20T03:44:15.816Z,99.99
2019-02-20T03:45:15.809Z,99.99
2019-02-20T03:46:15.815Z,99.99
2019-02-20T03:47:15.791Z,99.99
2019-02-20T03:48:15.854Z,99.99
2019-02-20T03:49:15.519Z,99.99
2019-02-20T03:50:15.512Z,99.99
2019-02-20T03:51:15.504Z,99.99
2019-02-20T03:52:15.738Z,99.99
2019-02-20T03:53:15.496Z,99.99
2019-02-20T03:54:15.708Z,99.99
2019-02-20T03:55:15.594Z,99.99
2019-02-20T03:56:15.748Z,99.99
2019-02-20T03:57:15.680Z,99.99
2019-02-20T03:58:15.417Z,99.99
2019-02-20T03:59:15.414Z,99.99
2019-02-20T04:00:15.725Z,99.99
2019-02-20T04:01:15.638Z,99.99
2019-02-20T04:02:15.634Z,99.99
2019-02-20T04:03:15.611Z,99.99
2019-02-20T04:04:15.384Z,99.99
2019-02-20T04:05:15.377Z,99.99
2019-02-20T04:06:15.606Z,99.99
2019-02-20T04:07:15.351Z,99.99
2019-02-20T04:08:15.576Z,99.99
2019-02-20T04:09:15.624Z,99.99
2019-02-20T04:10:15.585Z,99.99
2019-02-20T04:11:15.548Z,99.99
2019-02-20T04:12:15.279Z,99.99
2019-02-20T04:13:15.518Z,99.99
2019-02-20T04:14:15.510Z,99.99
2019-02-20T04:15:15.581Z,99.99
2019-02-20T04:16:15.505Z,99.99
2019-02-20T04:17:15.480Z,99.99
2019-02-20T04:18:15.478Z,99.99
2019-02-20T04:19:15.476Z,99.99
2019-02-20T04:20:15.485Z,99.99
2019-02-20T04:21:15.440Z,99.99
2019-02-20T04:22:15.175Z,99.99
2019-02-20T04:23:15.191Z,99.99
2019-02-20T04:24:15.399Z,99.99
2019-02-20T04:25:15.208Z,99.99
2019-02-20T04:26:15.380Z,99.99
2019-02-20T04:27:15.109Z,99.99
2019-02-20T04:28:15.363Z,99.99
2019-02-20T04:29:15.335Z,99.99
2019-02-20T04:30:15.375Z,99.99
2019-02-20T04:31:15.079Z,99.99
2019-02-20T04:32:15.323Z,99.99
2019-02-20T04:33:15.304Z,99.99
2019-02-20T04:34:15.035Z,99.99
2019-02-20T04:35:15.321Z,99.99
2019-02-20T04:36:15.013Z,99.99
2019-02-20T04:37:15.251Z,99.99
2019-02-20T04:38:15.243Z,99.99
2019-02-20T04:39:15.003Z,99.99
2019-02-20T04:40:15.231Z,99.99
2019-02-20T04:41:15.296Z,99.99
2019-02-20T04:42:15.211Z,99.99
2019-02-20T04:43:14.943Z,99.99
2019-02-20T04:44:15.186Z,99.99
2019-02-20T04:45:15.262Z,99.99
2019-02-20T04:46:15.151Z,99.99
2019-02-20T04:47:14.894Z,99.99
2019-02-20T04:48:14.972Z,99.99
2019-02-20T04:49:15.157Z,99.99
2019-02-20T04:50:15.122Z,99.99
2019-02-20T04:51:15.117Z,99.99
2019-02-20T04:52:15.089Z,99.99
2019-02-20T04:53:15.076Z,99.99
2019-02-20T04:54:16.057Z,99.99
2019-02-20T04:55:14.821Z,99.99
2019-02-20T04:56:15.056Z,99.99
2019-02-20T04:57:15.042Z,99.99
2019-02-20T04:58:15.026Z,99.99
2019-02-20T04:59:15.016Z,99.99
2019-02-20T05:00:15.028Z,99.99
2019-02-20T05:01:14.997Z,99.99
2019-02-20T05:02:15.019Z,99.99
2019-02-20T05:03:14.981Z,99.99
2019-02-20T05:04:14.726Z,99.99
2019-02-20T05:05:15.038Z,99.99
2019-02-20T05:06:14.700Z,99.99
2019-02-20T05:07:14.935Z,99.99
2019-02-20T05:08:14.938Z,99.99
2019-02-20T05:09:14.668Z,99.99
2019-02-20T05:10:14.921Z,99.99
2019-02-20T05:11:14.668Z,99.99
2019-02-20T05:12:14.887Z,99.99
2019-02-20T05:13:14.893Z,99.99
2019-02-20T05:14:14.866Z,99.99
2019-02-20T05:15:14.922Z,99.99
2019-02-20T05:16:14.845Z,99.99
2019-02-20T05:17:14.863Z,99.99
2019-02-20T05:18:14.853Z,99.99
2019-02-20T05:19:14.815Z,99.99
2019-02-20T05:20:14.565Z,99.99
2019-02-20T05:21:14.952Z,99.99
2019-02-20T05:22:14.825Z,99.99
2019-02-20T05:23:14.792Z,99.99
2019-02-20T05:24:23.962Z,99.99
2019-02-20T05:25:14.766Z,99.99
2019-02-20T05:26:14.877Z,99.99
2019-02-20T05:27:14.743Z,99.99
2019-02-20T05:28:14.490Z,99.99
2019-02-20T05:29:14.481Z,99.99
2019-02-20T05:30:14.741Z,99.99
2019-02-20T05:31:16.364Z,99.99
2019-02-20T05:32:14.437Z,99.99
2019-02-20T05:33:14.421Z,99.99
2019-02-20T05:34:14.675Z,99.99
2019-02-20T05:35:14.653Z,99.99
2019-02-20T05:36:14.640Z,99.99
2019-02-20T05:37:14.388Z,99.99
2019-02-20T05:38:14.387Z,99.99
2019-02-20T05:39:14.666Z,99.99
2019-02-20T05:40:14.619Z,99.99
2019-02-20T05:41:14.605Z,99.99
2019-02-20T05:42:14.362Z,99.99
2019-02-20T05:43:14.347Z,99.99
2019-02-20T05:44:14.574Z,99.99
2019-02-20T05:45:14.320Z,99.99
2019-02-20T05:46:14.309Z,99.99
2019-02-20T05:47:14.536Z,99.99
2019-02-20T05:48:14.295Z,99.99
2019-02-20T05:49:14.566Z,99.99
2019-02-20T05:50:14.524Z,99.99
2019-02-20T05:51:14.512Z,99.99
2019-02-20T05:52:14.514Z,99.99
2019-02-20T05:53:14.481Z,99.99
2019-02-20T05:54:14.479Z,99.99
2019-02-20T05:55:14.222Z,99.99
2019-02-20T05:56:14.450Z,99.99
2019-02-20T05:57:14.445Z,99.99
2019-02-20T05:58:14.453Z,99.99
2019-02-20T05:59:14.471Z,99.99
2019-02-20T06:00:14.478Z,99.99
2019-02-20T06:01:14.415Z,99.99
2019-02-20T06:02:14.160Z,99.99
2019-02-20T06:03:14.164Z,99.99
2019-02-20T06:04:14.371Z,99.99
2019-02-20T06:05:14.375Z,99.99
2019-02-20T06:06:14.355Z,99.99
2019-02-20T06:07:14.359Z,99.99
2019-02-20T06:08:14.091Z,99.99
2019-02-20T06:09:14.326Z,99.99
2019-02-20T06:10:14.316Z,99.99
2019-02-20T06:11:17.353Z,99.99
2019-02-20T06:12:14.068Z,99.99
2019-02-20T06:13:14.286Z,99.99
2019-02-20T06:14:14.282Z,99.99
2019-02-20T06:15:14.027Z,99.99
2019-02-20T06:16:14.268Z,99.99
2019-02-20T06:17:14.247Z,99.99
2019-02-20T06:18:14.255Z,99.99
2019-02-20T06:19:14.228Z,99.99
2019-02-20T06:20:14.287Z,99.99
2019-02-20T06:21:16.300Z,99.99
2019-02-20T06:22:14.203Z,99.99
2019-02-20T06:23:14.204Z,99.99
2019-02-20T06:24:13.954Z,99.99
2019-02-20T06:25:14.313Z,99.99
2019-02-20T06:26:13.929Z,99.99
2019-02-20T06:27:14.169Z,99.99
2019-02-20T06:28:14.148Z,99.99
2019-02-20T06:29:14.149Z,99.99
2019-02-20T06:30:14.246Z,99.99
2019-02-20T06:31:14.114Z,99.99
2019-02-20T06:32:14.107Z,99.99
2019-02-20T06:33:14.117Z,99.99
2019-02-20T06:34:13.863Z,99.99
2019-02-20T06:35:14.092Z,99.99
2019-02-20T06:36:13.820Z,99.99
2019-02-20T06:37:14.068Z,99.99
2019-02-20T06:38:14.296Z,99.99
2019-02-20T06:39:14.035Z,99.99
2019-02-20T06:40:13.785Z,99.99
2019-02-20T06:41:14.027Z,99.99
2019-02-20T06:42:14.060Z,99.99
2019-02-20T06:43:14.004Z,99.99
2019-02-20T06:44:13.989Z,99.99
2019-02-20T06:45:13.988Z,99.99
2019-02-20T06:46:13.962Z,99.99
2019-02-20T06:47:13.964Z,99.99
2019-02-20T06:48:13.941Z,99.99
2019-02-20T06:49:13.951Z,99.99
2019-02-20T06:50:13.937Z,99.99
2019-02-20T06:51:13.953Z,99.99
2019-02-20T06:52:13.902Z,99.99
2019-02-20T06:53:13.922Z,99.99
2019-02-20T06:54:13.893Z,99.99
2019-02-20T06:55:13.635Z,99.99
2019-02-20T06:56:13.860Z,99.99
2019-02-20T06:57:13.882Z,99.99
2019-02-20T06:58:13.638Z,99.99
2019-02-20T06:59:13.978Z,99.99
2019-02-20T07:00:13.836Z,99.99
2019-02-20T07:01:13.813Z,99.99
2019-02-20T07:02:13.810Z,99.99
2019-02-20T07:03:13.804Z,99.99
2019-02-20T07:04:13.793Z,99.99
2019-02-20T07:05:13.780Z,99.99
2019-02-20T07:06:13.770Z,99.99
2019-02-20T07:07:13.758Z,99.99
2019-02-20T07:08:13.759Z,99.99
2019-02-20T07:09:15.196Z,99.99
2019-02-20T07:10:13.729Z,99.99
2019-02-20T07:11:13.718Z,99.99
2019-02-20T07:12:13.709Z,99.99
2019-02-20T07:13:13.696Z,99.99
2019-02-20T07:14:13.687Z,99.99
2019-02-20T07:15:13.759Z,99.99
2019-02-20T07:16:13.670Z,99.99
2019-02-20T07:17:13.665Z,99.99
2019-02-20T07:18:13.654Z,99.99
2019-02-20T07:19:13.660Z,99.99
2019-02-20T07:20:13.664Z,99.99
2019-02-20T07:21:13.380Z,99.99
2019-02-20T07:22:13.622Z,99.99
2019-02-20T07:23:13.608Z,99.99
2019-02-20T07:24:13.609Z,99.99
2019-02-20T07:25:13.589Z,99.99
2019-02-20T07:26:13.349Z,99.99
2019-02-20T07:27:13.339Z,99.99
2019-02-20T07:28:13.313Z,99.99
2019-02-20T07:29:13.554Z,99.99
2019-02-20T07:30:13.298Z,99.99
2019-02-20T07:31:13.551Z,99.99
2019-02-20T07:32:13.532Z,99.99
2019-02-20T07:33:13.517Z,99.99
2019-02-20T07:34:13.506Z,99.99
2019-02-20T07:35:13.495Z,99.99
2019-02-20T07:36:13.489Z,99.99
2019-02-20T07:37:13.479Z,99.99
2019-02-20T07:38:13.469Z,99.99
2019-02-20T07:39:13.474Z,99.99
2019-02-20T07:40:13.478Z,99.99
2019-02-20T07:41:13.440Z,99.99
2019-02-20T07:42:13.443Z,99.99
2019-02-20T07:43:13.444Z,99.99
2019-02-20T07:44:13.176Z,99.99
2019-02-20T07:45:13.416Z,99.99
2019-02-20T07:46:13.404Z,99.99
2019-02-20T07:47:13.199Z,99.99
2019-02-20T07:48:13.426Z,99.99
2019-02-20T07:49:13.129Z,99.99
2019-02-20T07:50:13.372Z,99.99
2019-02-20T07:51:14.860Z,99.99
2019-02-20T07:52:13.353Z,99.99
2019-02-20T07:53:13.352Z,99.99
2019-02-20T07:54:13.353Z,99.99
2019-02-20T07:55:16.140Z,99.99
2019-02-20T07:56:13.316Z,99.99
2019-02-20T07:57:13.314Z,99.99
2019-02-20T07:58:13.056Z,99.99
2019-02-20T07:59:13.053Z,99.99
2019-02-20T08:00:13.315Z,99.99
2019-02-20T08:01:13.314Z,99.99
2019-02-20T08:02:13.269Z,99.99
2019-02-20T08:03:13.020Z,99.99
2019-02-20T08:04:13.262Z,99.99
2019-02-20T08:05:13.250Z,99.99
2019-02-20T08:06:13.240Z,99.99
2019-02-20T08:07:13.277Z,99.99
2019-02-20T08:08:12.994Z,99.99
2019-02-20T08:09:13.228Z,99.99
2019-02-20T08:10:13.235Z,99.99
2019-02-20T08:11:13.243Z,99.99
2019-02-20T08:12:13.229Z,99.99
2019-02-20T08:13:13.185Z,99.99
2019-02-20T08:14:12.940Z,99.99
2019-02-20T08:15:13.170Z,99.99
2019-02-20T08:16:13.223Z,99.99
2019-02-20T08:17:12.925Z,99.99
2019-02-20T08:18:13.146Z,99.99
2019-02-20T08:19:12.894Z,99.99
2019-02-20T08:20:12.885Z,99.99
2019-02-20T08:21:13.125Z,99.99
2019-02-20T08:22:13.931Z,99.99
2019-02-20T08:23:12.862Z,99.99
2019-02-20T08:24:13.121Z,99.99
2019-02-20T08:25:22.209Z,99.99
2019-02-20T08:26:12.840Z,99.99
2019-02-20T08:27:13.080Z,99.99
2019-02-20T08:28:13.071Z,99.99
2019-02-20T08:29:12.825Z,97.22
2019-02-20T08:30:13.069Z,95.08
2019-02-20T08:31:12.819Z,90.37
2019-02-20T08:32:13.053Z,86.51
2019-02-20T08:33:12.827Z,83.61
2019-02-20T08:34:13.048Z,82.75
2019-02-20T08:35:12.809Z,81.98
2019-02-20T08:36:13.032Z,82.27
2019-02-20T08:37:12.798Z,82.27
2019-02-20T08:38:12.782Z,81.13
2019-02-20T08:39:13.069Z,80.02
2019-02-20T08:40:13.028Z,78.69
2019-02-20T08:41:13.006Z,77.83
2019-02-20T08:42:12.748Z,77.64
2019-02-20T08:43:13.015Z,78.69
2019-02-20T08:44:13.007Z,79.99
2019-02-20T08:45:12.763Z,81.76
2019-02-20T08:46:13.008Z,83.47
2019-02-20T08:47:13.008Z,85.99
2019-02-20T08:48:12.989Z,86.47
2019-02-20T08:49:12.982Z,88.52
2019-02-20T08:50:13.003Z,90.33
2019-02-20T08:51:12.978Z,91.42
2019-02-20T08:52:12.727Z,91.89
2019-02-20T08:53:13.014Z,92.94
2019-02-20T08:54:12.716Z,94.65
2019-02-20T08:55:12.713Z,95.79
2019-02-20T08:56:12.973Z,96.65
2019-02-20T08:57:12.981Z,96.45
2019-02-20T08:58:12.968Z,97.17
2019-02-20T08:59:12.966Z,97.78
2019-02-20T09:00:12.935Z,97.69
2019-02-20T09:01:12.936Z,98.12
2019-02-20T09:02:12.932Z,97.83
2019-02-20T09:03:12.674Z,97.55
2019-02-20T09:04:12.936Z,98.21
2019-02-20T09:05:12.663Z,98.21
2019-02-20T09:06:12.658Z,97.97
2019-02-20T09:07:12.883Z,98.12
2019-02-20T09:08:12.889Z,97.69
2019-02-20T09:09:12.635Z,97.97
2019-02-20T09:10:12.882Z,97.97
2019-02-20T09:11:12.887Z,97.78
2019-02-20T09:12:12.627Z,97.6
2019-02-20T09:13:12.863Z,97.92
2019-02-20T09:14:12.851Z,98.21
2019-02-20T09:15:12.862Z,98.5
2019-02-20T09:16:12.862Z,99.07
2019-02-20T09:17:12.833Z,99.26
2019-02-20T09:18:12.830Z,99.07
2019-02-20T09:19:12.581Z,99.16
2019-02-20T09:20:12.821Z,99.4
2019-02-20T09:21:12.811Z,99.16
2019-02-20T09:22:12.811Z,99.21
2019-02-20T09:23:12.825Z,99.21
2019-02-20T09:24:12.544Z,98.83
2019-02-20T09:25:21.611Z,98.26
2019-02-20T09:26:12.786Z,97.78
2019-02-20T09:27:12.533Z,97.78
2019-02-20T09:28:12.782Z,97.78
2019-02-20T09:29:12.511Z,97.41
2019-02-20T09:30:12.789Z,97.03
2019-02-20T09:31:12.758Z,96.84
2019-02-20T09:32:12.760Z,96.84
2019-02-20T09:33:12.735Z,96.84
2019-02-20T09:34:12.504Z,96.08
2019-02-20T09:35:12.771Z,96.45
2019-02-20T09:36:12.733Z,97.03
2019-02-20T09:37:12.467Z,96.45
2019-02-20T09:38:12.772Z,96.93
2019-02-20T09:39:12.713Z,96.26
2019-02-20T09:40:12.711Z,96.12
2019-02-20T09:41:12.689Z,96.03
2019-02-20T09:42:12.682Z,95.46
2019-02-20T09:43:12.690Z,95.08
2019-02-20T09:44:12.661Z,94.7
2019-02-20T09:45:12.410Z,94.7
2019-02-20T09:46:12.680Z,94.79
2019-02-20T09:47:12.656Z,94.13
2019-02-20T09:48:12.643Z,93.94
2019-02-20T09:49:12.634Z,93.84
2019-02-20T09:50:12.638Z,93.13
2019-02-20T09:51:12.672Z,92.27
2019-02-20T09:52:12.623Z,91.99
2019-02-20T09:53:12.361Z,92.36
2019-02-20T09:54:12.354Z,92.08
2019-02-20T09:55:12.602Z,91.8
2019-02-20T09:56:12.602Z,91.7
2019-02-20T09:57:12.342Z,90.94
2019-02-20T09:58:12.608Z,90.61
2019-02-20T09:59:12.329Z,89.94
2019-02-20T10:00:12.598Z,90.03
2019-02-20T10:01:12.626Z,90.22
2019-02-20T10:02:12.347Z,89.37
2019-02-20T10:03:12.590Z,88.32
2019-02-20T10:04:12.555Z,88.13
2019-02-20T10:05:12.305Z,87.56
2019-02-20T10:06:13.059Z,88.51
2019-02-20T10:07:12.536Z,88.6
2019-02-20T10:08:12.282Z,88.42
2019-02-20T10:09:12.529Z,88.6
2019-02-20T10:10:12.527Z,88.79
2019-02-20T10:11:12.518Z,88.7
2019-02-20T10:12:12.529Z,88.79
2019-02-20T10:13:13.743Z,88.89
2019-02-20T10:14:12.510Z,88.32
2019-02-20T10:15:12.283Z,88.6
2019-02-20T10:16:12.271Z,88.23
2019-02-20T10:17:12.491Z,88.04
2019-02-20T10:18:14.513Z,87.75
2019-02-20T10:19:12.223Z,87.75
2019-02-20T10:20:12.474Z,87.08
2019-02-20T10:21:12.461Z,87.94
2019-02-20T10:22:12.456Z,87.98
2019-02-20T10:23:12.460Z,87.98
2019-02-20T10:24:12.204Z,86.75
2019-02-20T10:25:12.213Z,86.84
2019-02-20T10:26:12.464Z,86.46
2019-02-20T10:27:12.205Z,86.46
2019-02-20T10:28:12.205Z,86.18
2019-02-20T10:29:12.433Z,86.08
2019-02-20T10:30:12.240Z,85.7
2019-02-20T10:31:12.432Z,85.99
2019-02-20T10:32:12.423Z,85.99
2019-02-20T10:33:12.428Z,86.08
2019-02-20T10:34:13.684Z,86.18
2019-02-20T10:35:12.400Z,85.99
2019-02-20T10:36:12.149Z,85.99
2019-02-20T10:37:12.154Z,85.8
2019-02-20T10:38:12.389Z,85.8
2019-02-20T10:39:12.393Z,85.22
2019-02-20T10:40:12.381Z,84.84
2019-02-20T10:41:12.379Z,85.27
2019-02-20T10:42:12.114Z,85.17
2019-02-20T10:43:12.365Z,85.17
2019-02-20T10:44:12.371Z,84.69
2019-02-20T10:45:12.362Z,84.98
2019-02-20T10:46:12.348Z,84.12
2019-02-20T10:47:12.096Z,83.74
2019-02-20T10:48:12.354Z,83.65
2019-02-20T10:49:12.338Z,83.84
2019-02-20T10:50:12.346Z,83.74
2019-02-20T10:51:12.330Z,84.22
2019-02-20T10:52:12.329Z,84.03
2019-02-20T10:53:12.317Z,84.22
2019-02-20T10:54:12.323Z,83.84
2019-02-20T10:55:12.316Z,83.74
2019-02-20T10:56:12.328Z,84.69
2019-02-20T10:57:12.315Z,84.6
2019-02-20T10:58:12.305Z,83.84
2019-02-20T10:59:12.294Z,83.93
2019-02-20T11:00:23.128Z,83.84
2019-02-20T11:01:12.290Z,84.12
2019-02-20T11:02:12.049Z,84.31
2019-02-20T11:03:12.285Z,84.12
2019-02-20T11:04:12.040Z,84.41
2019-02-20T11:05:12.310Z,83.55
2019-02-20T11:06:12.263Z,83.26
2019-02-20T11:07:12.293Z,82.73
2019-02-20T11:08:12.259Z,82.64
2019-02-20T11:09:12.009Z,82.83
2019-02-20T11:10:12.013Z,82.07
2019-02-20T11:11:12.258Z,81.68
2019-02-20T11:12:12.018Z,81.3
2019-02-20T11:13:12.006Z,81.12
2019-02-20T11:14:12.252Z,80.83
2019-02-20T11:15:13.127Z,81.12
2019-02-20T11:16:12.227Z,80.35
2019-02-20T11:17:12.228Z,80.01
2019-02-20T11:18:12.254Z,79.91
2019-02-20T11:19:12.242Z,79.25
2019-02-20T11:20:13.647Z,78.58
2019-02-20T11:21:12.238Z,78.1
2019-02-20T11:22:12.214Z,78.1
2019-02-20T11:23:11.963Z,78.2
2019-02-20T11:24:11.956Z,78.3
2019-02-20T11:25:12.216Z,77.72
2019-02-20T11:26:20.014Z,77.38
2019-02-20T11:27:12.210Z,77.38
2019-02-20T11:28:11.964Z,76.48
2019-02-20T11:29:11.951Z,74.8
2019-02-20T11:30:12.184Z,74.52
2019-02-20T11:31:12.180Z,74.32
2019-02-20T11:32:12.179Z,73.85
2019-02-20T11:33:12.180Z,73.56
2019-02-20T11:34:11.924Z,73.28
2019-02-20T11:35:12.173Z,73.56
2019-02-20T11:36:12.172Z,73.56
2019-02-20T11:37:12.171Z,72.99
2019-02-20T11:38:11.925Z,72.32
2019-02-20T11:39:13.860Z,72.51
2019-02-20T11:40:12.166Z,72.42
2019-02-20T11:41:13.457Z,72.23
2019-02-20T11:42:12.154Z,71.56
2019-02-20T11:43:12.154Z,71.27
2019-02-20T11:44:20.621Z,71.21
2019-02-20T11:45:12.142Z,70.54
2019-02-20T11:46:12.125Z,70.83
2019-02-20T11:47:12.130Z,70.61
2019-02-20T11:48:11.873Z,71.18
2019-02-20T11:49:12.116Z,71.37
2019-02-20T11:50:12.142Z,71.27
2019-02-20T11:51:12.130Z,70.89
2019-02-20T11:52:11.901Z,71.46
2019-02-20T11:53:11.887Z,71.27
2019-02-20T11:54:12.119Z,72.48
2019-02-20T11:55:12.185Z,73.24
2019-02-20T11:56:12.349Z,73.24
2019-02-20T11:57:12.609Z,73.52
2019-02-20T11:58:12.119Z,73.33
2019-02-20T11:59:11.858Z,73.43
2019-02-20T12:00:12.113Z,73.52
2019-02-20T12:01:12.097Z,73.33
2019-02-20T12:02:12.095Z,73.14
2019-02-20T12:03:12.141Z,72.28
2019-02-20T12:04:11.843Z,72.09
2019-02-20T12:05:12.090Z,72.48
2019-02-20T12:06:12.095Z,72.09
2019-02-20T12:07:12.079Z,71.66
2019-02-20T12:08:12.077Z,71.27
2019-02-20T12:09:12.075Z,71.46
2019-02-20T12:10:12.756Z,71.08
2019-02-20T12:11:12.071Z,70.7
2019-02-20T12:12:12.064Z,70.22
2019-02-20T12:13:12.069Z,70.61
2019-02-20T12:14:11.814Z,70.32
2019-02-20T12:15:12.055Z,69.37
2019-02-20T12:16:12.055Z,69.84
2019-02-20T12:17:12.053Z,69.08
2019-02-20T12:18:19.771Z,69.56
2019-02-20T12:19:12.058Z,69.84
2019-02-20T12:20:12.073Z,69.37
2019-02-20T12:21:11.793Z,69.46
2019-02-20T12:22:11.802Z,69.37
2019-02-20T12:23:11.788Z,69.46
2019-02-20T12:24:12.055Z,70.03
2019-02-20T12:25:12.027Z,70.51
2019-02-20T12:26:12.045Z,69.93
2019-02-20T12:27:12.026Z,69.37
2019-02-20T12:28:11.772Z,69.27
2019-02-20T12:29:13.636Z,69.08
2019-02-20T12:30:11.784Z,69.27
2019-02-20T12:31:11.763Z,69.46
2019-02-20T12:32:11.765Z,69.27
2019-02-20T12:33:12.015Z,69.37
2019-02-20T12:34:11.765Z,69.37
2019-02-20T12:35:12.021Z,69.17
2019-02-20T12:36:11.800Z,69.37
2019-02-20T12:37:11.748Z,69.17
2019-02-20T12:38:11.740Z,69.46
2019-02-20T12:39:11.743Z,68.98
2019-02-20T12:40:11.987Z,68.79
2019-02-20T12:41:13.356Z,68.98
2019-02-20T12:42:13.025Z,68.98
2019-02-20T12:43:11.990Z,69.27
2019-02-20T12:44:11.731Z,69.65
2019-02-20T12:45:11.972Z,69.56
2019-02-20T12:46:11.723Z,69.84
2019-02-20T12:47:11.717Z,69.56
2019-02-20T12:48:11.966Z,69.93
2019-02-20T12:49:11.962Z,69.27
2019-02-20T12:50:11.957Z,69.27
2019-02-20T12:51:11.959Z,69.08
2019-02-20T12:52:11.697Z,69.74
2019-02-20T12:53:11.963Z,69.56